LESO/EAS METAR and TAF weather

Enter ICAO airport designator
Station Type Date Time Source
LESO METAR 2019/11/18 14:00 UTC NOAA

LESO 181400Z VRB01KT 9999 BKN048 10/02 Q1017


Station Type Date Time Source
LESO Decoded METAR 2019/11/18 14:00 UTC NOAA

San Sebastian / Fuenterrabia, Spain (LESO) 43-21N 001-48W 8M
Nov 18, 2019 - 09:00 AM EST / 2019.11.18 1400 UTC
Wind: Variable at 1 MPH (1 KT):0
Visibility: greater than 7 mile(s):0
Sky conditions: mostly cloudy
Temperature: 50 F (10 C)
Dew Point: 35 F (2 C)
Relative Humidity: 57%
Pressure (altimeter): 30.03 in. Hg (1017 hPa)
ob: LESO 181400Z VRB01KT 9999 BKN048 10/02 Q1017
cycle: 14

Station Type Date Time Source
LESO TAF 2019/11/18 12:27 UTC NOAA

TAF LESO 181100Z 1812/1912 VRB05KT 9999 SCT020 BKN040 TX11/1814Z TN04/1906Z PROB30
TEMPO 1812/1824 3000 SHRA SCT030TCU PROB40
TEMPO 1900/1908 3000 -RA BR BCFG PROB30
TEMPO 1900/1907 1500 -RA BR BCFG BKN005

Example: see airport list